sensor_id;sensor_type;location;lat;lon;timestamp;pressure;altitude;pressure_sealevel;temperature;humidity
16834;BME280;8533;48.426;10.868;2022-10-17T00:00:58;96797.77;;;11.75;100.00
16834;BME280;8533;48.426;10.868;2022-10-17T00:03:25;96796.89;;;11.72;100.00
16834;BME280;8533;48.426;10.868;2022-10-17T00:05:53;96799.97;;;11.69;100.00
16834;BME280;8533;48.426;10.868;2022-10-17T00:08:20;96800.45;;;11.66;100.00
16834;BME280;8533;48.426;10.868;2022-10-17T00:11:03;96803.02;;;11.64;100.00
16834;BME280;8533;48.426;10.868;2022-10-17T00:13:27;96813.45;;;11.61;100.00
16834;BME280;8533;48.426;10.868;2022-10-17T00:15:55;96812.37;;;11.60;100.00
16834;BME280;8533;48.426;10.868;2022-10-17T00:18:23;96811.62;;;11.62;100.00
16834;BME280;8533;48.426;10.868;2022-10-17T00:20:51;96814.76;;;11.61;100.00
16834;BME280;8533;48.426;10.868;2022-10-17T00:23:19;96812.91;;;11.59;100.00
16834;BME280;8533;48.426;10.868;2022-10-17T00:25:46;96807.38;;;11.58;100.00
16834;BME280;8533;48.426;10.868;2022-10-17T00:28:14;96812.80;;;11.54;100.00
16834;BME280;8533;48.426;10.868;2022-10-17T00:30:42;96806.98;;;11.52;100.00
16834;BME280;8533;48.426;10.868;2022-10-17T00:33:09;96813.80;;;11.51;100.00
16834;BME280;8533;48.426;10.868;2022-10-17T00:35:37;96825.81;;;11.49;100.00
16834;BME280;8533;48.426;10.868;2022-10-17T00:38:04;96814.99;;;11.45;100.00
16834;BME280;8533;48.426;10.868;2022-10-17T00:40:31;96824.67;;;11.45;100.00
16834;BME280;8533;48.426;10.868;2022-10-17T00:42:59;96825.95;;;11.42;100.00
16834;BME280;8533;48.426;10.868;2022-10-17T00:45:29;96826.69;;;11.40;100.00
16834;BME280;8533;48.426;10.868;2022-10-17T00:48:02;96830.84;;;11.39;100.00
16834;BME280;8533;48.426;10.868;2022-10-17T00:50:30;96823.73;;;11.37;100.00
16834;BME280;8533;48.426;10.868;2022-10-17T00:53:00;96824.21;;;11.34;100.00
16834;BME280;8533;48.426;10.868;2022-10-17T00:55:31;96822.33;;;11.32;100.00
16834;BME280;8533;48.426;10.868;2022-10-17T00:58:01;96824.16;;;11.31;100.00
16834;BME280;8533;48.426;10.868;2022-10-17T01:00:29;96825.91;;;11.28;100.00
16834;BME280;8533;48.426;10.868;2022-10-17T01:02:57;96827.22;;;11.28;100.00
16834;BME280;8533;48.426;10.868;2022-10-17T01:05:25;96830.09;;;11.27;100.00
16834;BME280;8533;48.426;10.868;2022-10-17T01:07:53;96829.81;;;11.26;100.00
16834;BME280;8533;48.426;10.868;2022-10-17T01:10:21;96829.53;;;11.25;100.00
16834;BME280;8533;48.426;10.868;2022-10-17T01:16:05;96835.84;;;11.26;100.00
16834;BME280;8533;48.426;10.868;2022-10-17T01:24:28;96843.57;;;11.33;100.00
16834;BME280;8533;48.426;10.868;2022-10-17T01:32:15;96832.17;;;11.27;100.00
16834;BME280;8533;48.426;10.868;2022-10-17T01:34:47;96838.63;;;11.22;100.00
16834;BME280;8533;48.426;10.868;2022-10-17T01:37:27;96829.92;;;11.19;100.00
16834;BME280;8533;48.426;10.868;2022-10-17T01:40:15;96839.05;;;11.17;100.00
16834;BME280;8533;48.426;10.868;2022-10-17T01:42:29;96829.22;;;11.09;100.00
16834;BME280;8533;48.426;10.868;2022-10-17T01:44:58;96828.08;;;11.05;100.00
16834;BME280;8533;48.426;10.868;2022-10-17T01:47:28;96830.25;;;10.97;100.00
16834;BME280;8533;48.426;10.868;2022-10-17T01:50:03;96817.87;;;10.92;100.00
16834;BME280;8533;48.426;10.868;2022-10-17T01:52:32;96817.00;;;10.89;100.00
16834;BME280;8533;48.426;10.868;2022-10-17T01:55:04;96811.20;;;10.87;100.00
16834;BME280;8533;48.426;10.868;2022-10-17T01:57:42;96813.49;;;10.84;100.00
16834;BME280;8533;48.426;10.868;2022-10-17T02:00:10;96806.09;;;10.81;100.00
16834;BME280;8533;48.426;10.868;2022-10-17T02:02:40;96809.19;;;10.78;100.00
16834;BME280;8533;48.426;10.868;2022-10-17T02:05:08;96807.23;;;10.73;100.00
16834;BME280;8533;48.426;10.868;2022-10-17T02:07:36;96806.15;;;10.71;100.00
16834;BME280;8533;48.426;10.868;2022-10-17T02:10:09;96807.14;;;10.68;100.00
16834;BME280;8533;48.426;10.868;2022-10-17T02:12:54;96804.07;;;10.59;100.00
16834;BME280;8533;48.426;10.868;2022-10-17T02:15:27;96804.30;;;10.58;100.00
16834;BME280;8533;48.426;10.868;2022-10-17T02:18:05;96798.99;;;10.55;100.00
16834;BME280;8533;48.426;10.868;2022-10-17T02:20:45;96802.92;;;10.55;100.00
16834;BME280;8533;48.426;10.868;2022-10-17T02:23:11;96799.76;;;10.53;100.00
16834;BME280;8533;48.426;10.868;2022-10-17T02:25:59;96804.63;;;10.50;100.00
16834;BME280;8533;48.426;10.868;2022-10-17T02:28:36;96807.76;;;10.49;100.00
16834;BME280;8533;48.426;10.868;2022-10-17T02:31:12;96803.51;;;10.46;100.00
16834;BME280;8533;48.426;10.868;2022-10-17T02:33:41;96802.65;;;10.43;100.00
16834;BME280;8533;48.426;10.868;2022-10-17T02:36:13;96799.67;;;10.39;100.00
16834;BME280;8533;48.426;10.868;2022-10-17T02:38:40;96801.49;;;10.39;100.00
16834;BME280;8533;48.426;10.868;2022-10-17T02:41:10;96808.94;;;10.32;100.00
16834;BME280;8533;48.426;10.868;2022-10-17T02:43:39;96811.78;;;10.31;100.00
16834;BME280;8533;48.426;10.868;2022-10-17T02:46:08;96813.48;;;10.25;100.00
16834;BME280;8533;48.426;10.868;2022-10-17T02:48:41;96816.10;;;10.25;100.00
16834;BME280;8533;48.426;10.868;2022-10-17T02:51:13;96819.95;;;10.23;100.00
16834;BME280;8533;48.426;10.868;2022-10-17T02:53:58;96813.59;;;10.19;100.00
16834;BME280;8533;48.426;10.868;2022-10-17T02:56:24;96824.17;;;10.15;100.00
16834;BME280;8533;48.426;10.868;2022-10-17T02:58:56;96824.93;;;10.13;100.00
16834;BME280;8533;48.426;10.868;2022-10-17T03:01:24;96825.15;;;10.11;100.00
16834;BME280;8533;48.426;10.868;2022-10-17T03:04:11;96821.38;;;10.07;100.00
16834;BME280;8533;48.426;10.868;2022-10-17T03:06:34;96825.30;;;10.07;100.00
16834;BME280;8533;48.426;10.868;2022-10-17T03:09:02;96831.83;;;10.07;100.00
16834;BME280;8533;48.426;10.868;2022-10-17T03:11:30;96833.94;;;10.08;100.00
16834;BME280;8533;48.426;10.868;2022-10-17T03:13:57;96829.69;;;10.04;100.00
16834;BME280;8533;48.426;10.868;2022-10-17T03:16:24;96830.41;;;10.02;100.00
16834;BME280;8533;48.426;10.868;2022-10-17T03:18:52;96829.75;;;9.98;100.00
16834;BME280;8533;48.426;10.868;2022-10-17T03:21:19;96828.91;;;9.94;100.00
16834;BME280;8533;48.426;10.868;2022-10-17T03:23:47;96833.92;;;9.96;100.00
16834;BME280;8533;48.426;10.868;2022-10-17T03:26:14;96830.80;;;9.97;100.00
16834;BME280;8533;48.426;10.868;2022-10-17T03:28:42;96828.70;;;9.96;100.00
16834;BME280;8533;48.426;10.868;2022-10-17T03:31:16;96828.91;;;9.94;100.00
16834;BME280;8533;48.426;10.868;2022-10-17T03:33:40;96830.73;;;9.94;100.00
16834;BME280;8533;48.426;10.868;2022-10-17T03:36:12;96835.67;;;9.93;100.00
16834;BME280;8533;48.426;10.868;2022-10-17T03:38:40;96837.48;;;9.92;100.00
16834;BME280;8533;48.426;10.868;2022-10-17T03:41:08;96839.80;;;9.91;100.00
16834;BME280;8533;48.426;10.868;2022-10-17T03:43:36;96845.83;;;9.92;100.00
16834;BME280;8533;48.426;10.868;2022-10-17T03:46:04;96846.33;;;9.91;100.00
16834;BME280;8533;48.426;10.868;2022-10-17T03:48:32;96853.04;;;9.87;100.00
16834;BME280;8533;48.426;10.868;2022-10-17T03:51:05;96847.95;;;9.83;100.00
16834;BME280;8533;48.426;10.868;2022-10-17T03:53:33;96855.21;;;9.81;100.00
16834;BME280;8533;48.426;10.868;2022-10-17T03:56:18;96855.67;;;9.78;100.00
16834;BME280;8533;48.426;10.868;2022-10-17T03:58:46;96856.11;;;9.75;100.00
16834;BME280;8533;48.426;10.868;2022-10-17T04:01:15;96849.79;;;9.74;100.00
16834;BME280;8533;48.426;10.868;2022-10-17T04:03:47;96852.65;;;9.72;100.00
16834;BME280;8533;48.426;10.868;2022-10-17T04:06:12;96859.10;;;9.70;100.00
16834;BME280;8533;48.426;10.868;2022-10-17T04:08:40;96858.59;;;9.70;100.00
16834;BME280;8533;48.426;10.868;2022-10-17T04:11:09;96850.17;;;9.68;100.00
16834;BME280;8533;48.426;10.868;2022-10-17T04:13:38;96850.61;;;9.65;100.00
16834;BME280;8533;48.426;10.868;2022-10-17T04:16:09;96854.81;;;9.66;100.00
16834;BME280;8533;48.426;10.868;2022-10-17T04:18:36;96856.13;;;9.66;100.00
16834;BME280;8533;48.426;10.868;2022-10-17T04:21:05;96862.66;;;9.66;100.00
16834;BME280;8533;48.426;10.868;2022-10-17T04:23:33;96861.85;;;9.66;100.00
16834;BME280;8533;48.426;10.868;2022-10-17T04:26:02;96866.81;;;9.65;100.00
16834;BME280;8533;48.426;10.868;2022-10-17T04:28:31;96869.94;;;9.64;100.00
16834;BME280;8533;48.426;10.868;2022-10-17T04:31:05;96871.96;;;9.62;100.00
16834;BME280;8533;48.426;10.868;2022-10-17T04:33:31;96873.77;;;9.62;100.00
16834;BME280;8533;48.426;10.868;2022-10-17T04:36:03;96878.13;;;9.58;100.00
16834;BME280;8533;48.426;10.868;2022-10-17T04:38:32;96880.44;;;9.57;100.00
16834;BME280;8533;48.426;10.868;2022-10-17T04:41:01;96886.70;;;9.56;100.00
16834;BME280;8533;48.426;10.868;2022-10-17T04:43:35;96888.02;;;9.56;100.00
16834;BME280;8533;48.426;10.868;2022-10-17T04:45:59;96883.22;;;9.53;100.00
16834;BME280;8533;48.426;10.868;2022-10-17T04:48:28;96885.83;;;9.53;100.00
16834;BME280;8533;48.426;10.868;2022-10-17T04:51:02;96880.09;;;9.54;100.00
16834;BME280;8533;48.426;10.868;2022-10-17T04:53:27;96885.24;;;9.51;100.00
16834;BME280;8533;48.426;10.868;2022-10-17T04:55:55;96889.88;;;9.49;100.00
16834;BME280;8533;48.426;10.868;2022-10-17T04:58:23;96888.02;;;9.47;100.00
16834;BME280;8533;48.426;10.868;2022-10-17T05:00:51;96891.64;;;9.46;100.00
16834;BME280;8533;48.426;10.868;2022-10-17T05:03:18;96889.75;;;9.44;100.00
16834;BME280;8533;48.426;10.868;2022-10-17T05:05:45;96887.94;;;9.45;100.00
16834;BME280;8533;48.426;10.868;2022-10-17T05:08:13;96893.38;;;9.43;100.00
16834;BME280;8533;48.426;10.868;2022-10-17T05:10:43;96887.64;;;9.44;100.00
16834;BME280;8533;48.426;10.868;2022-10-17T05:13:11;96886.05;;;9.43;100.00
16834;BME280;8533;48.426;10.868;2022-10-17T05:15:38;96885.54;;;9.43;100.00
16834;BME280;8533;48.426;10.868;2022-10-17T05:18:06;96889.67;;;9.42;100.00
16834;BME280;8533;48.426;10.868;2022-10-17T05:20:34;96887.56;;;9.41;100.00
16834;BME280;8533;48.426;10.868;2022-10-17T05:23:02;96888.87;;;9.41;100.00
16834;BME280;8533;48.426;10.868;2022-10-17T05:25:29;96886.05;;;9.43;100.00
16834;BME280;8533;48.426;10.868;2022-10-17T05:27:57;96895.91;;;9.41;100.00
16834;BME280;8533;48.426;10.868;2022-10-17T05:30:24;96895.39;;;9.41;100.00
16834;BME280;8533;48.426;10.868;2022-10-17T05:32:53;96894.09;;;9.41;100.00
16834;BME280;8533;48.426;10.868;2022-10-17T05:35:21;96894.09;;;9.41;100.00
16834;BME280;8533;48.426;10.868;2022-10-17T05:37:48;96892.52;;;9.40;100.00
16834;BME280;8533;48.426;10.868;2022-10-17T05:40:16;96900.56;;;9.39;100.00
16834;BME280;8533;48.426;10.868;2022-10-17T05:42:47;96900.06;;;9.39;100.00
16834;BME280;8533;48.426;10.868;2022-10-17T05:45:15;96903.39;;;9.37;100.00
16834;BME280;8533;48.426;10.868;2022-10-17T05:47:42;96902.30;;;9.36;100.00
16834;BME280;8533;48.426;10.868;2022-10-17T05:50:10;96903.39;;;9.37;100.00
16834;BME280;8533;48.426;10.868;2022-10-17T05:52:37;96905.20;;;9.37;100.00
16834;BME280;8533;48.426;10.868;2022-10-17T05:55:05;96909.20;;;9.39;100.00
16834;BME280;8533;48.426;10.868;2022-10-17T05:57:33;96912.83;;;9.38;100.00
16834;BME280;8533;48.426;10.868;2022-10-17T06:00:00;96912.11;;;9.40;100.00
16834;BME280;8533;48.426;10.868;2022-10-17T06:02:28;96919.70;;;9.42;100.00
16834;BME280;8533;48.426;10.868;2022-10-17T06:04:56;96918.18;;;9.43;100.00
16834;BME280;8533;48.426;10.868;2022-10-17T06:07:23;96917.97;;;9.45;100.00
16834;BME280;8533;48.426;10.868;2022-10-17T06:09:51;96923.19;;;9.45;100.00
16834;BME280;8533;48.426;10.868;2022-10-17T06:12:18;96922.52;;;9.49;100.00
16834;BME280;8533;48.426;10.868;2022-10-17T06:14:46;96923.41;;;9.52;100.00
16834;BME280;8533;48.426;10.868;2022-10-17T06:17:13;96929.50;;;9.55;100.00
16834;BME280;8533;48.426;10.868;2022-10-17T06:19:40;96930.35;;;9.58;100.00
16834;BME280;8533;48.426;10.868;2022-10-17T06:22:09;96932.83;;;9.63;100.00
16834;BME280;8533;48.426;10.868;2022-10-17T06:24:37;96938.19;;;9.68;100.00
16834;BME280;8533;48.426;10.868;2022-10-17T06:27:04;96938.10;;;9.74;100.00
16834;BME280;8533;48.426;10.868;2022-10-17T06:29:32;96946.15;;;9.82;100.00
16834;BME280;8533;48.426;10.868;2022-10-17T06:31:59;96946.44;;;9.92;100.00
16834;BME280;8533;48.426;10.868;2022-10-17T06:34:27;96940.31;;;9.98;100.00
16834;BME280;8533;48.426;10.868;2022-10-17T06:36:54;96949.02;;;10.10;100.00
16834;BME280;8533;48.426;10.868;2022-10-17T06:39:22;96945.83;;;10.17;100.00
16834;BME280;8533;48.426;10.868;2022-10-17T06:41:51;96953.66;;;10.26;100.00
16834;BME280;8533;48.426;10.868;2022-10-17T06:44:18;96958.57;;;10.35;100.00
16834;BME280;8533;48.426;10.868;2022-10-17T06:46:47;96961.16;;;10.44;100.00
16834;BME280;8533;48.426;10.868;2022-10-17T06:49:14;96962.66;;;10.51;100.00
16834;BME280;8533;48.426;10.868;2022-10-17T06:51:42;96975.63;;;10.58;100.00
16834;BME280;8533;48.426;10.868;2022-10-17T06:54:09;96982.87;;;10.65;100.00
16834;BME280;8533;48.426;10.868;2022-10-17T06:56:37;96980.11;;;10.69;100.00
16834;BME280;8533;48.426;10.868;2022-10-17T06:59:04;96990.69;;;10.74;100.00
16834;BME280;8533;48.426;10.868;2022-10-17T07:01:32;96991.05;;;10.78;100.00
16834;BME280;8533;48.426;10.868;2022-10-17T07:03:59;96997.41;;;10.82;100.00
16834;BME280;8533;48.426;10.868;2022-10-17T07:06:27;97000.14;;;10.87;100.00
16834;BME280;8533;48.426;10.868;2022-10-17T07:08:54;96992.94;;;10.91;100.00
16834;BME280;8533;48.426;10.868;2022-10-17T07:11:22;96995.95;;;10.97;100.00
16834;BME280;8533;48.426;10.868;2022-10-17T07:13:51;96995.05;;;11.03;100.00
16834;BME280;8533;48.426;10.868;2022-10-17T07:16:18;96999.95;;;11.12;100.00
16834;BME280;8533;48.426;10.868;2022-10-17T07:18:48;96993.55;;;11.17;100.00
16834;BME280;8533;48.426;10.868;2022-10-17T07:21:16;97002.08;;;11.24;100.00
16834;BME280;8533;48.426;10.868;2022-10-17T07:23:44;96999.41;;;11.33;100.00
16834;BME280;8533;48.426;10.868;2022-10-17T07:26:13;96924.95;;;10.94;100.00
16834;BME280;8533;48.426;10.868;2022-10-17T07:28:42;97003.96;;;11.49;100.00
16834;BME280;8533;48.426;10.868;2022-10-17T07:31:13;97004.95;;;11.60;100.00
16834;BME280;8533;48.426;10.868;2022-10-17T07:33:42;97011.00;;;11.72;100.00
16834;BME280;8533;48.426;10.868;2022-10-17T07:36:10;97007.03;;;11.81;100.00
16834;BME280;8533;48.426;10.868;2022-10-17T07:38:38;97015.11;;;11.91;100.00
16834;BME280;8533;48.426;10.868;2022-10-17T07:41:08;97018.42;;;12.01;100.00
16834;BME280;8533;48.426;10.868;2022-10-17T07:43:37;97018.63;;;12.11;100.00
16834;BME280;8533;48.426;10.868;2022-10-17T07:46:05;97022.77;;;12.21;100.00
16834;BME280;8533;48.426;10.868;2022-10-17T07:48:33;97016.42;;;12.31;100.00
16834;BME280;8533;48.426;10.868;2022-10-17T07:51:05;97016.87;;;12.42;100.00
16834;BME280;8533;48.426;10.868;2022-10-17T07:53:37;97014.95;;;12.52;100.00
16834;BME280;8533;48.426;10.868;2022-10-17T07:56:06;97017.25;;;12.63;100.00
16834;BME280;8533;48.426;10.868;2022-10-17T07:58:34;97017.16;;;12.72;100.00
16834;BME280;8533;48.426;10.868;2022-10-17T08:01:04;97017.82;;;12.81;100.00
16834;BME280;8533;48.426;10.868;2022-10-17T08:03:31;97024.33;;;12.93;100.00
16834;BME280;8533;48.426;10.868;2022-10-17T08:06:02;97023.19;;;13.03;100.00
16834;BME280;8533;48.426;10.868;2022-10-17T08:08:30;97022.56;;;13.13;100.00
16834;BME280;8533;48.426;10.868;2022-10-17T08:11:03;97021.70;;;13.24;100.00
16834;BME280;8533;48.426;10.868;2022-10-17T08:13:30;97029.46;;;13.33;100.00
16834;BME280;8533;48.426;10.868;2022-10-17T08:16:02;97030.61;;;13.40;100.00
16834;BME280;8533;48.426;10.868;2022-10-17T08:18:31;97023.11;;;13.48;100.00
16834;BME280;8533;48.426;10.868;2022-10-17T08:20:59;97019.84;;;13.58;100.00
16834;BME280;8533;48.426;10.868;2022-10-17T08:23:27;97021.02;;;13.67;100.00
16834;BME280;8533;48.426;10.868;2022-10-17T08:26:00;97021.92;;;13.75;100.00
16834;BME280;8533;48.426;10.868;2022-10-17T08:28:28;97022.53;;;13.82;100.00
16834;BME280;8533;48.426;10.868;2022-10-17T08:31:06;97019.72;;;13.89;100.00
16834;BME280;8533;48.426;10.868;2022-10-17T08:33:33;97025.39;;;14.00;100.00
16834;BME280;8533;48.426;10.868;2022-10-17T08:36:02;97028.17;;;14.12;100.00
16834;BME280;8533;48.426;10.868;2022-10-17T08:38:31;97030.13;;;14.22;100.00
16834;BME280;8533;48.426;10.868;2022-10-17T08:41:02;97033.69;;;14.35;98.87
16834;BME280;8533;48.426;10.868;2022-10-17T08:46:17;97025.82;;;14.60;96.54
16834;BME280;8533;48.426;10.868;2022-10-17T08:48:46;97027.28;;;14.72;95.61
16834;BME280;8533;48.426;10.868;2022-10-17T08:51:23;97031.06;;;14.84;94.77
16834;BME280;8533;48.426;10.868;2022-10-17T08:53:55;97022.77;;;14.97;93.86
16834;BME280;8533;48.426;10.868;2022-10-17T08:56:33;97029.45;;;15.10;93.76
16834;BME280;8533;48.426;10.868;2022-10-17T08:58:52;97027.20;;;15.23;92.59
16834;BME280;8533;48.426;10.868;2022-10-17T09:04:19;97023.13;;;15.45;89.81
16834;BME280;8533;48.426;10.868;2022-10-17T09:06:45;97032.22;;;15.59;88.68
16834;BME280;8533;48.426;10.868;2022-10-17T09:09:49;97030.72;;;15.71;86.76
16834;BME280;8533;48.426;10.868;2022-10-17T09:12:36;97033.41;;;15.84;87.03
16834;BME280;8533;48.426;10.868;2022-10-17T09:20:24;97029.80;;;16.00;85.21
16834;BME280;8533;48.426;10.868;2022-10-17T09:22:58;97037.77;;;16.05;84.02
16834;BME280;8533;48.426;10.868;2022-10-17T09:25:27;97031.19;;;16.13;84.37
16834;BME280;8533;48.426;10.868;2022-10-17T09:28:13;97033.31;;;16.13;84.16
16834;BME280;8533;48.426;10.868;2022-10-17T09:30:46;97033.59;;;16.19;83.11
16834;BME280;8533;48.426;10.868;2022-10-17T09:33:16;97032.82;;;16.26;82.58
16834;BME280;8533;48.426;10.868;2022-10-17T09:35:45;97030.20;;;16.29;81.41
16834;BME280;8533;48.426;10.868;2022-10-17T09:38:21;97027.31;;;16.35;82.13
16834;BME280;8533;48.426;10.868;2022-10-17T09:40:50;97033.92;;;16.40;83.11
16834;BME280;8533;48.426;10.868;2022-10-17T09:43:17;97021.80;;;16.45;82.89
16834;BME280;8533;48.426;10.868;2022-10-17T09:45:58;97023.64;;;16.54;81.59
16834;BME280;8533;48.426;10.868;2022-10-17T09:48:25;97016.58;;;16.65;80.51
16834;BME280;8533;48.426;10.868;2022-10-17T09:50:51;97019.25;;;16.70;79.38
16834;BME280;8533;48.426;10.868;2022-10-17T09:53:26;97018.47;;;16.77;78.39
16834;BME280;8533;48.426;10.868;2022-10-17T09:55:57;97015.83;;;16.85;78.20
16834;BME280;8533;48.426;10.868;2022-10-17T10:01:20;97016.61;;;16.95;78.00
16834;BME280;8533;48.426;10.868;2022-10-17T10:03:49;97013.46;;;17.01;77.27
16834;BME280;8533;48.426;10.868;2022-10-17T10:06:18;97023.23;;;17.05;77.66
16834;BME280;8533;48.426;10.868;2022-10-17T10:08:49;97022.44;;;17.20;76.41
16834;BME280;8533;48.426;10.868;2022-10-17T10:11:18;97021.64;;;17.30;78.06
16834;BME280;8533;48.426;10.868;2022-10-17T10:13:47;97015.55;;;17.37;78.94
16834;BME280;8533;48.426;10.868;2022-10-17T10:16:20;97014.52;;;17.43;77.76
16834;BME280;8533;48.426;10.868;2022-10-17T10:18:50;97019.26;;;17.51;78.03
16834;BME280;8533;48.426;10.868;2022-10-17T10:21:20;97021.91;;;17.66;75.23
16834;BME280;8533;48.426;10.868;2022-10-17T10:26:45;97021.77;;;18.12;71.28
16834;BME280;8533;48.426;10.868;2022-10-17T10:32:44;97019.31;;;18.30;69.90
16834;BME280;8533;48.426;10.868;2022-10-17T10:34:29;97023.47;;;18.47;68.47
16834;BME280;8533;48.426;10.868;2022-10-17T10:37:05;97015.98;;;18.61;67.66
16834;BME280;8533;48.426;10.868;2022-10-17T10:39:38;97013.51;;;18.78;66.22
16834;BME280;8533;48.426;10.868;2022-10-17T10:42:05;97011.81;;;18.92;66.13
16834;BME280;8533;48.426;10.868;2022-10-17T10:44:34;97013.28;;;19.08;66.29
16834;BME280;8533;48.426;10.868;2022-10-17T10:49:41;97011.16;;;19.39;62.94
16834;BME280;8533;48.426;10.868;2022-10-17T10:52:14;97015.28;;;19.55;61.82
16834;BME280;8533;48.426;10.868;2022-10-17T10:54:52;97014.64;;;19.68;62.90
16834;BME280;8533;48.426;10.868;2022-10-17T10:57:13;97015.03;;;19.80;62.09
16834;BME280;8533;48.426;10.868;2022-10-17T11:05:01;97011.86;;;20.26;61.39
16834;BME280;8533;48.426;10.868;2022-10-17T11:07:31;97012.58;;;20.32;61.02
16834;BME280;8533;48.426;10.868;2022-10-17T11:10:09;97010.08;;;20.43;59.45
16834;BME280;8533;48.426;10.868;2022-10-17T11:12:44;97008.59;;;20.53;60.01
16834;BME280;8533;48.426;10.868;2022-10-17T11:20:23;97003.97;;;20.80;58.65
16834;BME280;8533;48.426;10.868;2022-10-17T11:22:53;97004.50;;;20.98;58.08
16834;BME280;8533;48.426;10.868;2022-10-17T11:25:39;96997.22;;;21.22;58.52
16834;BME280;8533;48.426;10.868;2022-10-17T11:28:16;97002.47;;;21.41;58.21
16834;BME280;8533;48.426;10.868;2022-10-17T11:30:47;96997.09;;;21.60;57.38
16834;BME280;8533;48.426;10.868;2022-10-17T11:35:54;97001.20;;;22.12;55.97
16834;BME280;8533;48.426;10.868;2022-10-17T11:38:32;97006.73;;;22.40;56.30
16834;BME280;8533;48.426;10.868;2022-10-17T11:40:57;97003.80;;;22.64;55.80
16834;BME280;8533;48.426;10.868;2022-10-17T11:43:31;96996.34;;;22.89;53.56
16834;BME280;8533;48.426;10.868;2022-10-17T11:46:11;96996.41;;;22.97;52.77
16834;BME280;8533;48.426;10.868;2022-10-17T11:48:38;96996.97;;;23.08;53.12
16834;BME280;8533;48.426;10.868;2022-10-17T11:51:10;96991.85;;;23.20;52.68
16834;BME280;8533;48.426;10.868;2022-10-17T11:56:09;97001.28;;;23.17;51.65
16834;BME280;8533;48.426;10.868;2022-10-17T11:59:04;96996.64;;;23.43;51.42
16834;BME280;8533;48.426;10.868;2022-10-17T12:01:37;96997.48;;;23.52;51.79
16834;BME280;8533;48.426;10.868;2022-10-17T12:09:14;96995.53;;;23.66;51.43
16834;BME280;8533;48.426;10.868;2022-10-17T12:11:56;97001.70;;;23.75;51.49
16834;BME280;8533;48.426;10.868;2022-10-17T12:17:04;96995.05;;;23.64;52.27
16834;BME280;8533;48.426;10.868;2022-10-17T12:19:34;96997.41;;;23.66;52.36
16834;BME280;8533;48.426;10.868;2022-10-17T12:24:53;96999.56;;;23.94;50.93
16834;BME280;8533;48.426;10.868;2022-10-17T12:30:17;96997.51;;;24.31;49.33
16834;BME280;8533;48.426;10.868;2022-10-17T12:35:23;96997.11;;;24.35;50.15
16834;BME280;8533;48.426;10.868;2022-10-17T12:51:16;96997.99;;;24.50;51.58
16834;BME280;8533;48.426;10.868;2022-10-17T12:56:31;96997.57;;;24.28;52.33
16834;BME280;8533;48.426;10.868;2022-10-17T12:58:50;96996.98;;;24.01;53.76
16834;BME280;8533;48.426;10.868;2022-10-17T13:01:32;96988.05;;;24.05;54.36
16834;BME280;8533;48.426;10.868;2022-10-17T13:04:04;96984.92;;;23.92;54.75
16834;BME280;8533;48.426;10.868;2022-10-17T13:06:35;96987.80;;;23.84;53.82
16834;BME280;8533;48.426;10.868;2022-10-17T13:09:07;96987.71;;;23.78;56.49
16834;BME280;8533;48.426;10.868;2022-10-17T13:11:37;96988.02;;;23.77;53.81
16834;BME280;8533;48.426;10.868;2022-10-17T13:14:11;96991.04;;;23.64;55.66
16834;BME280;8533;48.426;10.868;2022-10-17T13:16:51;96980.84;;;23.44;55.11
16834;BME280;8533;48.426;10.868;2022-10-17T13:19:20;96980.52;;;23.26;56.36
16834;BME280;8533;48.426;10.868;2022-10-17T13:21:59;96983.37;;;23.07;56.11
16834;BME280;8533;48.426;10.868;2022-10-17T13:24:30;96980.78;;;22.93;57.88
16834;BME280;8533;48.426;10.868;2022-10-17T13:26:59;96983.73;;;22.80;57.01
16834;BME280;8533;48.426;10.868;2022-10-17T13:29:27;96985.20;;;22.73;58.65
16834;BME280;8533;48.426;10.868;2022-10-17T13:32:02;96991.88;;;22.62;56.99
16834;BME280;8533;48.426;10.868;2022-10-17T13:34:31;96991.97;;;22.57;57.15
16834;BME280;8533;48.426;10.868;2022-10-17T13:37:04;96990.55;;;22.62;56.23
16834;BME280;8533;48.426;10.868;2022-10-17T13:39:44;96995.31;;;22.62;56.39
16834;BME280;8533;48.426;10.868;2022-10-17T13:42:21;96992.97;;;22.61;56.01
16834;BME280;8533;48.426;10.868;2022-10-17T13:44:42;96996.42;;;22.61;56.78
16834;BME280;8533;48.426;10.868;2022-10-17T13:47:25;96998.55;;;22.62;57.03
16834;BME280;8533;48.426;10.868;2022-10-17T13:49:48;96998.22;;;22.63;57.53
16834;BME280;8533;48.426;10.868;2022-10-17T13:52:18;96996.09;;;22.63;59.47
16834;BME280;8533;48.426;10.868;2022-10-17T13:54:49;96983.43;;;22.57;58.43
16834;BME280;8533;48.426;10.868;2022-10-17T13:57:25;96997.19;;;22.51;57.73
16834;BME280;8533;48.426;10.868;2022-10-17T13:59:55;96992.89;;;22.38;58.06
16834;BME280;8533;48.426;10.868;2022-10-17T14:02:26;96995.39;;;22.35;58.34
16834;BME280;8533;48.426;10.868;2022-10-17T14:05:12;96995.88;;;22.23;59.48
16834;BME280;8533;48.426;10.868;2022-10-17T14:10:34;96995.34;;;22.37;58.76
16834;BME280;8533;48.426;10.868;2022-10-17T14:12:55;96997.39;;;22.40;58.60
16834;BME280;8533;48.426;10.868;2022-10-17T14:15:28;97003.97;;;22.45;57.34
16834;BME280;8533;48.426;10.868;2022-10-17T14:18:01;97002.02;;;22.49;57.57
16834;BME280;8533;48.426;10.868;2022-10-17T14:20:31;97009.52;;;22.46;57.86
16834;BME280;8533;48.426;10.868;2022-10-17T14:22:59;97005.64;;;22.41;59.42
16834;BME280;8533;48.426;10.868;2022-10-17T14:25:38;97007.73;;;22.56;57.64
16834;BME280;8533;48.426;10.868;2022-10-17T14:30:42;97009.38;;;22.79;58.03
16834;BME280;8533;48.426;10.868;2022-10-17T14:33:26;97007.08;;;22.75;58.30
16834;BME280;8533;48.426;10.868;2022-10-17T14:35:54;97006.23;;;22.77;58.62
16834;BME280;8533;48.426;10.868;2022-10-17T14:38:18;97008.03;;;22.79;56.53
16834;BME280;8533;48.426;10.868;2022-10-17T14:40:52;97001.02;;;22.83;55.93